Latest Coastal Weather Observations for Frankston

IDV60701

Issued at 5:02 am EDT Tuesday 28 February 2017 (issued every 10 minutes, with the page automatically refreshed every 10 minutes)

About coastal observations | Map of coastal stations | Coastal observations for VIC | Marine services | Other Formats
Station Details ID: 086371 Name: FRANKSTON AWS Lat: -38.15 Lon: 145.12 Height: 6.0 m
Data from the previous 72 hours. | See also: Recent months at Frankston
Date/Time
EDT
Temp
°C
Wind Pressure Rain since
9am
mm
Weather Cloud Vis
km
Sea
Height
m
Swell
Dir  Spd
kts
Gust
kts
hPa Trend Height
m
Period
s
Dir
28/04:30am 18.5 ESE 1 2 - - - - - - - - - -
28/04:00am 19.1 SE 5 7 - - - - - - - - - -
28/03:30am 19.3 SE 7 8 - - - - - - - - - -
28/03:00am 19.3 SE 6 9 - - - - - - - - - -
28/02:30am 19.6 ESE 6 8 - - - - - - - - - -
28/02:00am 20.1 ESE 5 7 - - - - - - - - - -
28/01:30am 20.8 ESE 5 8 - - - - - - - - - -
28/01:00am 21.4 ESE 6 10 - - - - - - - - - -
28/12:30am 22.0 ESE 6 11 - - - - - - - - - -
28/12:00am 23.0 ESE 5 9 - - - - - - - - - -
 
Date/Time
EDT
Temp
°C
Wind Pressure Rain since
9am
mm
Weather Cloud Vis
km
Sea
Height
m
Swell
Dir  Spd
kts
Gust
kts
hPa Trend Height
m
Period
s
Dir
27/11:30pm 23.4 E 7 11 - - - - - - - - - -
27/11:00pm 23.8 E 7 14 - - - - - - - - - -
27/10:30pm 24.1 ESE 6 10 - - - - - - - - - -
27/10:00pm 24.5 ESE 6 12 - - - - - - - - - -
27/09:30pm 24.7 ESE 6 12 - - - - - - - - - -
27/09:00pm 25.1 SE 6 9 - - - - - - - - - -
27/08:30pm 26.1 SE 5 9 - - - - - - - - - -
27/08:00pm 27.2 ESE 4 8 - - - - - - - - - -
27/07:30pm 28.4 SE 5 10 - - - - - - - - - -
27/07:00pm 28.7 SSE 4 8 - - - - - - - - - -
27/06:30pm 29.5 SSE 5 10 - - - - - - - - - -
27/06:00pm 29.8 SSE 7 13 - - - - - - - - - -
27/05:30pm 29.7 WSW 6 7 - - - - - - - - - -
27/05:00pm 28.8 WSW 7 8 - - - - - - - - - -
27/04:30pm 28.9 WSW 6 7 - - - - - - - - - -
27/04:00pm 29.0 WSW 4 4 - - - - - - - - - -
27/03:30pm 28.2 WSW 3 3 - - - - - - - - - -
27/03:00pm 27.9 WSW 3 3 - - - - - - - - - -
27/02:30pm 26.9 WSW 3 3 - - - - - - - - - -
27/02:00pm 27.1 CALM 0 1 - - - - - - - - - -
27/01:30pm 25.7 WSW 2 2 - - - - - - - - - -
27/01:00pm 25.1 SW 2 3 - - - - - - - - - -
27/12:30pm 24.3 WSW 2 3 - - - - - - - - - -
27/12:00pm 23.1 WNW 3 4 - - - - - - - - - -
27/11:30am 24.1 N 5 7 - - - - - - - - - -
27/11:00am 22.8 CALM 0 0 - - - - - - - - - -
27/10:30am 21.7 CALM 0 0 - - - - - - - - - -
27/10:00am 20.5 CALM 0 0 - - - - - - - - - -
27/09:30am 19.9 NNE 2 4 - - - - - - - - - -
27/09:00am 19.6 ENE 2 4 - - - - - - - - - -
27/08:30am 17.9 ESE 4 6 - - - - - - - - - -
27/08:00am 16.6 ESE 2 3 - - - - - - - - - -
27/07:30am 15.4 SE 4 5 - - - - - - - - - -
27/07:00am 14.9 ESE 4 7 - - - - - - - - - -
27/06:30am 15.1 SE 6 8 - - - - - - - - - -
27/06:00am 15.2 SE 5 8 - - - - - - - - - -
27/05:30am 15.4 ESE 6 8 - - - - - - - - - -
27/05:00am 15.6 ESE 7 11 - - - - - - - - - -
27/04:30am 15.8 ESE 7 9 - - - - - - - - - -
27/04:00am 15.9 ESE 7 10 - - - - - - - - - -
27/03:30am 16.2 ESE 6 9 - - - - - - - - - -
27/03:00am 16.5 ESE 6 9 - - - - - - - - - -
27/02:30am 16.7 ESE 7 15 - - - - - - - - - -
27/02:00am 17.0 ESE 8 15 - - - - - - - - - -
27/01:30am 17.2 ESE 8 13 - - - - - - - - - -
27/01:00am 17.5 ESE 9 14 - - - - - - - - - -
27/12:30am 17.7 ESE 8 15 - - - - - - - - - -
27/12:00am 18.0 ESE 9 15 - - - - - - - - - -
 
Date/Time
EDT
Temp
°C
Wind Pressure Rain since
9am
mm
Weather Cloud Vis
km
Sea
Height
m
Swell
Dir  Spd
kts
Gust
kts
hPa Trend Height
m
Period
s
Dir
26/11:30pm 18.3 ESE 10 18 - - - - - - - - - -
26/11:00pm 18.8 ESE 9 21 - - - - - - - - - -
26/10:30pm 19.4 ESE 10 21 - - - - - - - - - -
26/10:00pm 20.0 ESE 10 17 - - - - - - - - - -
26/09:30pm 20.5 ESE 12 22 - - - - - - - - - -
26/09:00pm 21.3 ESE 11 22 - - - - - - - - - -
26/08:30pm 22.2 ESE 9 15 - - - - - - - - - -
26/08:00pm 23.4 E 9 14 - - - - - - - - - -
26/07:30pm 24.8 E 9 16 - - - - - - - - - -
26/07:00pm 26.2 E 10 16 - - - - - - - - - -
26/06:30pm 27.0 ESE 8 15 - - - - - - - - - -
26/06:00pm 27.8 ESE 6 12 - - - - - - - - - -
26/05:30pm 28.3 SE 5 12 - - - - - - - - - -
26/05:00pm 27.7 SE 7 13 - - - - - - - - - -
26/04:30pm 27.8 ESE 6 11 - - - - - - - - - -
26/04:00pm 27.0 WSW 6 10 - - - - - - - - - -
26/03:30pm 21.8 W 9 9 - - - - - - - - - -
26/03:00pm 20.8 WSW 9 11 - - - - - - - - - -
26/02:30pm 20.5 WSW 7 8 - - - - - - - - - -
26/02:00pm 20.0 WSW 8 9 - - - - - - - - - -
26/01:30pm 19.7 WSW 6 7 - - - - - - - - - -
26/01:00pm 19.5 W 5 5 - - - - - - - - - -
26/12:30pm 19.5 W 5 6 - - - - - - - - - -
26/12:00pm 23.0 E 2 5 - - - - - - - - - -
26/11:30am 21.9 E 3 8 - - - - - - - - - -
26/11:00am 21.3 ENE 5 10 - - - - - - - - - -
26/10:30am 20.0 ENE 4 8 - - - - - - - - - -
26/10:00am 19.2 E 4 8 - - - - - - - - - -
26/09:30am 17.8 E 7 11 - - - - - - - - - -
26/09:00am 17.2 E 8 13 - - - - - - - - - -
26/08:30am 16.7 E 6 12 - - - - - - - - - -
26/08:00am 16.1 E 6 9 - - - - - - - - - -
26/07:30am 15.7 ESE 4 9 - - - - - - - - - -
26/07:00am 15.7 ESE 5 9 - - - - - - - - - -
26/06:30am 15.9 ESE 6 10 - - - - - - - - - -
26/06:00am 16.0 ESE 7 11 - - - - - - - - - -
26/05:30am 16.2 ESE 7 12 - - - - - - - - - -
26/05:00am 16.4 ESE 7 14 - - - - - - - - - -
26/04:30am 16.6 ESE 8 15 - - - - - - - - - -
26/04:00am 16.8 ESE 9 16 - - - - - - - - - -
26/03:30am 17.2 ESE 10 18 - - - - - - - - - -
26/03:00am 17.2 ESE 10 19 - - - - - - - - - -
26/02:30am 17.2 ESE 10 21 - - - - - - - - - -
26/02:00am 17.4 ESE 10 21 - - - - - - - - - -
26/01:30am 17.5 ESE 11 20 - - - - - - - - - -
26/01:00am 17.7 ESE 10 19 - - - - - - - - - -
26/12:30am 17.4 SE 7 12 - - - - - - - - - -
26/12:00am 16.8 SSE 5 9 - - - - - - - - - -
 
Date/Time
EDT
Temp
°C
Wind Pressure Rain since
9am
mm
Weather Cloud Vis
km
Sea
Height
m
Swell
Dir  Spd
kts
Gust
kts
hPa Trend Height
m
Period
s
Dir
25/11:30pm 17.1 SSE 3 6 - - - - - - - - - -
25/11:00pm 17.4 ESE 6 11 - - - - - - - - - -
25/10:30pm 17.4 SE 4 10 - - - - - - - - - -
25/10:00pm 17.5 SE 3 6 - - - - - - - - - -
25/09:30pm 17.7 SSE 4 8 - - - - - - - - - -
25/09:00pm 17.7 SSE 7 11 - - - - - - - - - -
25/08:30pm 17.5 S 6 11 - - - - - - - - - -
25/08:00pm 17.8 S 6 11 - - - - - - - - - -
25/07:30pm 18.5 S 6 15 - - - - - - - - - -
25/07:00pm 18.5 S 6 11 - - - - - - - - - -
25/06:30pm 18.3 S 11 17 - - - - - - - - - -
25/06:00pm 18.2 S 10 19 - - - - - - - - - -
25/05:30pm 18.8 S 9 18 - - - - - - - - - -
25/05:00pm 19.3 S 8 15 - - - - - - - - - -
25/04:30pm 17.8 WSW 18 24 - - - - - - - - - -
25/04:00pm 17.4 WSW 16 25 - - - - - - - - - -
25/03:30pm 17.5 WSW 12 18 - - - - - - - - - -
25/03:00pm 19.1 SE 4 9 - - - - - - - - - -
25/02:30pm 18.8 ESE 4 9 - - - - - - - - - -
25/02:00pm 19.4 SSE 4 9 - - - - - - - - - -
25/01:30pm 18.9 S 3 8 - - - - - - - - - -
25/01:00pm 17.5 SSW 6 12 - - - - - - - - - -
25/12:30pm 17.7 S 5 12 - - - - - - - - - -
25/12:00pm 17.1 S 7 12 - - - - - - - - - -
25/11:30am 17.2 S 5 9 - - - - - - - - - -
25/11:00am 17.1 SSE 4 8 - - - - - - - - - -
25/10:30am 16.6 SE 5 11 - - - - - - - - - -
25/10:00am 15.5 SE 4 7 - - - - - - - - - -
25/09:30am 14.7 SSE 4 7 - - - - - - - - - -
25/09:00am 14.7 SSE 4 7 - - - - - - - - - -
25/08:30am 14.3 SSE 2 4 - - - - - - - - - -
25/08:00am 13.5 S 3 5 - - - - - - - - - -
25/07:30am 13.2 S 2 4 - - - - - - - - - -
25/07:00am 12.8 SSE 2 3 - - - - - - - - - -
25/06:30am 13.1 S 3 4 - - - - - - - - - -
25/06:00am 13.0 S 2 3 - - - - - - - - - -
25/05:30am 13.2 SSE 2 4 - - - - - - - - - -

Other Formats:

Comma delimited format used in spreadsheet applications
http://www.bom.gov.au/fwo/IDV60701/IDV60701.94871.axf

JavaScript Object Notation format (JSON) in row-major order
http://www.bom.gov.au/fwo/IDV60701/IDV60701.94871.json